Time;durP1;ratioP1;P1;durP2;ratioP2;P2;SDS_P1;SDS_P2;PMS_P1;PMS_P2;Temp;Humidity;BMP_temperature;BMP_pressure;BME280_temperature;BME280_humidity;BME280_pressure;Samples;Min_cycle;Max_cycle;Signal;HPM_P1;HPM_P2
2023/11/12 00:01:36;;;;;;;9.83;5.13;;;8.40;99.90;;;;;;5042224;28;20029;-81
2023/11/12 00:04:02;;;;;;;11.90;5.10;;;8.40;99.90;;;;;;5038986;28;20542;-81
2023/11/12 00:06:28;;;;;;;9.37;5.20;;;8.40;99.90;;;;;;5040701;28;20037;-81
2023/11/12 00:08:55;;;;;;;8.50;4.90;;;8.50;99.90;;;;;;5039152;28;20049;-81
2023/11/12 00:11:22;;;;;;;9.13;5.33;;;8.40;99.90;;;;;;5039704;28;20079;-81
2023/11/12 00:13:48;;;;;;;8.87;5.43;;;8.40;99.90;;;;;;5039757;28;20065;-81
2023/11/12 00:16:14;;;;;;;13.90;5.93;;;8.40;99.90;;;;;;5039262;28;20021;-81
2023/11/12 00:18:40;;;;;;;12.90;5.80;;;8.40;99.90;;;;;;5040637;28;20041;-80
2023/11/12 00:21:05;;;;;;;10.60;6.07;;;8.40;99.90;;;;;;5038563;28;20013;-81
2023/11/12 00:23:31;;;;;;;11.17;5.53;;;8.40;99.90;;;;;;5040578;28;20060;-81
2023/11/12 00:25:56;;;;;;;11.13;6.13;;;8.40;99.90;;;;;;5039134;28;20056;-80
2023/11/12 00:28:22;;;;;;;12.33;5.90;;;8.40;99.90;;;;;;5057066;28;20035;-80
2023/11/12 00:30:48;;;;;;;10.27;5.80;;;8.40;99.90;;;;;;5040953;28;20424;-81
2023/11/12 00:33:13;;;;;;;11.93;5.33;;;8.40;99.90;;;;;;5040318;28;20537;-79
2023/11/12 00:35:39;;;;;;;13.13;6.20;;;8.40;99.90;;;;;;5042796;28;20029;-81
2023/11/12 00:38:05;;;;;;;11.70;6.27;;;8.40;99.90;;;;;;5041988;28;20026;-81
2023/11/12 00:40:32;;;;;;;10.83;5.70;;;8.40;99.90;;;;;;5042123;28;20056;-81
2023/11/12 00:42:58;;;;;;;11.37;5.23;;;8.40;99.90;;;;;;5055546;28;20052;-80
2023/11/12 00:45:24;;;;;;;12.03;6.03;;;8.40;99.90;;;;;;5039796;28;20112;-80
2023/11/12 00:47:49;;;;;;;10.30;5.57;;;8.30;99.90;;;;;;5039512;28;20374;-81
2023/11/12 00:50:16;;;;;;;12.63;6.10;;;8.30;99.90;;;;;;5039024;28;20428;-81
2023/11/12 00:52:42;;;;;;;8.93;6.03;;;8.30;99.90;;;;;;5039746;28;20022;-80
2023/11/12 00:55:08;;;;;;;12.37;6.50;;;8.20;99.90;;;;;;5038056;28;20032;-80
2023/11/12 00:57:35;;;;;;;11.47;6.40;;;8.20;99.90;;;;;;5040601;28;20022;-80
2023/11/12 01:00:04;;;;;;;13.07;6.20;;;8.10;99.90;;;;;;5038123;28;20044;-80
2023/11/12 01:02:29;;;;;;;10.87;6.33;;;8.00;99.90;;;;;;5039344;28;20045;-80
2023/11/12 01:04:55;;;;;;;11.13;5.87;;;8.00;99.90;;;;;;5039141;28;20547;-80
2023/11/12 01:07:21;;;;;;;11.90;6.90;;;8.00;99.90;;;;;;5039905;28;20025;-79
2023/11/12 01:09:47;;;;;;;9.40;6.13;;;7.90;99.90;;;;;;5039514;28;20038;-80
2023/11/12 01:12:13;;;;;;;17.03;6.83;;;7.90;99.90;;;;;;5041820;28;20107;-81
2023/11/12 01:14:39;;;;;;;12.50;7.23;;;7.80;99.90;;;;;;5043960;28;20026;-81
2023/11/12 01:17:05;;;;;;;13.33;7.37;;;7.80;99.90;;;;;;5042009;28;20027;-81
2023/11/12 01:19:32;;;;;;;11.43;6.80;;;7.70;99.90;;;;;;5043547;28;20052;-81
2023/11/12 01:21:58;;;;;;;11.43;7.10;;;7.70;99.90;;;;;;5042357;28;20030;-81
2023/11/12 01:24:26;;;;;;;15.67;7.77;;;7.60;99.90;;;;;;5042523;28;20036;-81
2023/11/12 01:26:52;;;;;;;11.03;6.73;;;7.60;99.90;;;;;;5043251;28;20037;-80
2023/11/12 01:29:17;;;;;;;14.33;6.73;;;7.60;99.90;;;;;;5041832;28;20029;-81
2023/11/12 01:31:45;;;;;;;13.87;7.30;;;7.50;99.90;;;;;;5043800;28;20088;-81
2023/11/12 01:34:11;;;;;;;15.70;8.33;;;7.50;99.90;;;;;;5041627;28;20025;-81
2023/11/12 01:36:37;;;;;;;12.60;6.70;;;7.50;99.90;;;;;;5043222;28;20021;-81
2023/11/12 01:39:04;;;;;;;13.23;7.40;;;7.40;99.90;;;;;;5042460;28;20032;-81
2023/11/12 01:41:30;;;;;;;12.80;7.30;;;7.40;99.90;;;;;;5042315;28;20048;-80
2023/11/12 01:43:56;;;;;;;12.50;7.40;;;7.30;99.90;;;;;;5042811;28;20021;-80
2023/11/12 01:46:22;;;;;;;12.13;7.37;;;7.30;99.90;;;;;;5043212;28;20021;-81
2023/11/12 01:48:48;;;;;;;12.87;7.87;;;7.20;99.90;;;;;;5044770;28;20071;-81
2023/11/12 01:51:15;;;;;;;13.60;7.60;;;7.20;99.90;;;;;;5040896;28;20112;-81
2023/11/12 01:53:41;;;;;;;15.17;8.40;;;7.20;99.90;;;;;;5059622;28;20499;-81
2023/11/12 01:56:12;;;;;;;17.07;8.57;;;7.20;99.90;;;;;;5041977;28;20018;-81
2023/11/12 01:58:39;;;;;;;15.97;8.67;;;7.20;99.90;;;;;;5043563;28;20025;-82
2023/11/12 02:01:05;;;;;;;13.43;8.23;;;7.20;99.90;;;;;;5042549;28;20025;-81
2023/11/12 02:03:31;;;;;;;14.00;9.00;;;7.20;99.90;;;;;;5040986;28;20170;-81
2023/11/12 02:05:57;;;;;;;13.37;8.77;;;7.10;99.90;;;;;;5044344;28;20022;-81
2023/11/12 02:08:23;;;;;;;15.10;8.93;;;7.10;99.90;;;;;;5040947;28;20099;-80
2023/11/12 02:10:50;;;;;;;13.73;8.57;;;7.20;99.90;;;;;;5042778;28;20037;-81
2023/11/12 02:13:17;;;;;;;15.23;8.30;;;7.20;99.90;;;;;;5024982;28;20033;-81
2023/11/12 02:15:47;;;;;;;14.63;8.37;;;7.20;99.90;;;;;;5041946;28;20068;-81
2023/11/12 02:18:13;;;;;;;18.00;9.00;;;7.20;99.90;;;;;;5041948;28;20030;-81
2023/11/12 02:20:48;;;;;;;14.93;9.97;;;7.20;99.90;;;;;;5040783;28;20036;-81
2023/11/12 02:23:15;;;;;;;12.93;7.70;;;7.20;99.90;;;;;;5042388;28;20112;-81
2023/11/12 02:25:43;;;;;;;12.57;8.53;;;7.30;99.90;;;;;;5040552;28;20110;-81
2023/11/12 02:28:10;;;;;;;12.97;8.67;;;7.30;99.90;;;;;;5042187;28;20079;-81
2023/11/12 02:30:37;;;;;;;15.53;8.67;;;7.30;99.90;;;;;;5041253;28;20033;-82
2023/11/12 02:33:05;;;;;;;13.30;8.90;;;7.30;99.90;;;;;;5040973;28;20036;-81
2023/11/12 02:35:32;;;;;;;13.63;8.37;;;7.30;99.90;;;;;;5059073;28;20022;-81
2023/11/12 02:37:58;;;;;;;12.87;8.60;;;7.40;99.90;;;;;;5042320;28;20026;-81
2023/11/12 02:40:24;;;;;;;14.77;9.03;;;7.30;99.90;;;;;;5042445;28;20522;-81
2023/11/12 02:42:50;;;;;;;13.87;9.23;;;7.40;99.90;;;;;;5041766;28;20108;-81
2023/11/12 02:45:16;;;;;;;13.10;9.13;;;7.30;99.90;;;;;;5042203;28;20052;-81
2023/11/12 02:47:45;;;;;;;14.70;9.23;;;7.40;99.90;;;;;;5040922;28;20061;-81
2023/11/12 02:50:31;;;;;;;13.90;9.90;;;7.40;99.90;;;;;;5041031;28;20026;-82
2023/11/12 02:53:00;;;;;;;12.93;8.60;;;7.40;99.90;;;;;;5042052;28;20056;-82
2023/11/12 02:55:27;;;;;;;17.23;10.30;;;7.40;99.90;;;;;;5040001;28;20029;-82
2023/11/12 02:57:53;;;;;;;15.10;9.43;;;7.40;99.90;;;;;;5042035;28;20033;-82
2023/11/12 03:00:20;;;;;;;19.83;9.93;;;7.40;99.90;;;;;;5040700;28;20044;-82
2023/11/12 03:02:46;;;;;;;13.93;10.47;;;7.40;99.90;;;;;;5042193;28;20085;-81
2023/11/12 03:05:14;;;;;;;15.33;9.33;;;7.40;99.90;;;;;;5041267;28;20051;-82
2023/11/12 03:07:40;;;;;;;15.47;9.40;;;7.40;99.90;;;;;;5039951;28;20045;-82
2023/11/12 03:10:08;;;;;;;16.77;10.63;;;7.40;99.90;;;;;;5041832;28;20017;-81
2023/11/12 03:12:38;;;;;;;18.87;10.20;;;7.30;99.90;;;;;;5039590;28;20025;-82
2023/11/12 03:15:06;;;;;;;15.70;10.00;;;7.30;99.90;;;;;;5043148;28;20057;-82
2023/11/12 03:17:33;;;;;;;19.20;11.07;;;7.30;99.90;;;;;;5040414;28;20025;-82
2023/11/12 03:19:58;;;;;;;14.43;10.23;;;7.30;99.90;;;;;;5040468;28;20034;-81
2023/11/12 03:22:24;;;;;;;15.57;10.67;;;7.20;99.90;;;;;;5040936;28;20039;-81
2023/11/12 03:24:50;;;;;;;16.97;11.10;;;7.20;99.90;;;;;;5040214;28;20025;-82
2023/11/12 03:27:16;;;;;;;17.97;11.80;;;7.10;99.90;;;;;;5041221;28;20021;-80
2023/11/12 03:29:42;;;;;;;19.40;12.07;;;7.10;99.90;;;;;;5039243;28;20029;-81
2023/11/12 03:32:07;;;;;;;19.10;12.50;;;7.10;99.90;;;;;;5041218;28;20089;-82
2023/11/12 03:34:33;;;;;;;18.03;12.97;;;7.10;99.90;;;;;;5040419;28;20504;-82
2023/11/12 03:36:59;;;;;;;23.43;13.60;;;7.10;99.90;;;;;;5042186;28;20045;-81
2023/11/12 03:39:24;;;;;;;27.97;13.80;;;7.10;99.90;;;;;;5040702;28;20025;-81
2023/11/12 03:41:50;;;;;;;18.93;12.97;;;7.20;99.90;;;;;;5039316;28;20052;-82
2023/11/12 03:44:16;;;;;;;22.00;13.73;;;7.10;99.90;;;;;;5042398;28;20022;-82
2023/11/12 03:46:42;;;;;;;21.07;13.43;;;7.10;99.90;;;;;;5039420;28;20025;-82
2023/11/12 03:49:08;;;;;;;21.83;14.63;;;7.20;99.90;;;;;;5041842;28;20025;-82
2023/11/12 03:51:34;;;;;;;21.63;14.87;;;7.20;99.90;;;;;;5039895;28;20137;-81
2023/11/12 03:54:02;;;;;;;23.17;14.90;;;7.20;99.90;;;;;;5042314;28;20392;-82
2023/11/12 03:56:29;;;;;;;30.20;17.80;;;7.20;99.90;;;;;;5062302;28;20274;-81
2023/11/12 03:58:57;;;;;;;27.07;17.20;;;7.30;99.90;;;;;;5045935;28;20063;-81
2023/11/12 04:01:23;;;;;;;26.67;17.80;;;7.20;99.90;;;;;;5040617;28;20089;-81
2023/11/12 04:03:49;;;;;;;24.43;16.73;;;7.20;99.90;;;;;;5038863;28;20525;-82
2023/11/12 04:06:16;;;;;;;28.43;17.83;;;7.30;99.90;;;;;;5040986;28;20037;-82
2023/11/12 04:08:42;;;;;;;28.20;18.90;;;7.30;99.90;;;;;;5038832;28;20056;-82
2023/11/12 04:11:08;;;;;;;31.63;20.10;;;7.30;99.90;;;;;;5039993;28;20297;-81
2023/11/12 04:13:34;;;;;;;28.50;18.60;;;7.30;99.90;;;;;;5039941;28;20032;-81
2023/11/12 04:16:00;;;;;;;34.73;18.30;;;7.30;99.90;;;;;;5055740;28;20028;-81
2023/11/12 04:18:26;;;;;;;27.63;18.13;;;7.30;99.90;;;;;;5041857;28;20085;-81
2023/11/12 04:20:51;;;;;;;28.63;18.77;;;7.30;99.90;;;;;;5038370;28;20063;-81
2023/11/12 04:23:17;;;;;;;30.97;19.87;;;7.30;99.90;;;;;;5041738;28;20025;-81
2023/11/12 04:25:45;;;;;;;30.03;19.53;;;7.30;99.90;;;;;;5038686;28;20025;-82
2023/11/12 04:28:10;;;;;;;28.67;18.17;;;7.40;99.90;;;;;;5041414;28;20020;-82
2023/11/12 04:30:37;;;;;;;27.50;18.43;;;7.40;99.90;;;;;;5039465;28;20081;-82
2023/11/12 04:33:03;;;;;;;30.13;18.90;;;7.40;99.90;;;;;;5039125;28;20021;-82
2023/11/12 04:35:29;;;;;;;30.67;18.20;;;7.40;99.90;;;;;;5039921;28;20048;-82
2023/11/12 04:37:54;;;;;;;30.20;18.97;;;7.40;99.90;;;;;;5039915;28;20018;-82
2023/11/12 04:40:20;;;;;;;29.90;19.10;;;7.30;99.90;;;;;;5041479;28;20054;-82
2023/11/12 04:42:47;;;;;;;31.20;17.87;;;7.30;99.90;;;;;;5054944;28;20025;-82
2023/11/12 04:45:13;;;;;;;28.70;17.20;;;7.30;99.90;;;;;;5039705;28;20053;-82
2023/11/12 04:47:39;;;;;;;27.80;17.73;;;7.30;99.90;;;;;;5038764;28;20128;-81
2023/11/12 04:50:05;;;;;;;26.93;17.10;;;7.30;99.90;;;;;;5055678;28;20017;-82
2023/11/12 04:52:31;;;;;;;25.03;16.87;;;7.30;99.90;;;;;;5039503;28;20021;-82
2023/11/12 04:54:56;;;;;;;25.47;16.13;;;7.40;99.90;;;;;;5038630;28;20018;-81
2023/11/12 04:57:23;;;;;;;28.60;16.90;;;7.30;99.90;;;;;;5039952;28;20469;-81
2023/11/12 04:59:49;;;;;;;24.63;16.60;;;7.40;99.90;;;;;;5038099;28;20045;-81
2023/11/12 05:02:14;;;;;;;28.90;16.53;;;7.30;99.90;;;;;;5039529;28;20025;-81
2023/11/12 05:04:43;;;;;;;23.73;16.03;;;7.40;99.90;;;;;;5038753;28;20033;-81
2023/11/12 05:07:09;;;;;;;23.80;16.00;;;7.30;99.90;;;;;;5039022;28;20021;-81
2023/11/12 05:09:35;;;;;;;27.07;15.20;;;7.30;99.90;;;;;;5039544;28;20052;-81
2023/11/12 05:12:01;;;;;;;21.50;16.03;;;7.30;99.90;;;;;;5038020;28;20030;-81
2023/11/12 05:14:27;;;;;;;25.30;15.83;;;7.30;99.90;;;;;;5040149;28;20025;-81
2023/11/12 05:16:52;;;;;;;23.03;15.73;;;7.30;99.90;;;;;;5038105;28;20025;-81
2023/11/12 05:19:18;;;;;;;25.67;16.93;;;7.30;99.90;;;;;;5039664;28;20120;-81
2023/11/12 05:21:45;;;;;;;23.83;15.17;;;7.30;99.90;;;;;;5038304;28;20029;-81
2023/11/12 05:24:12;;;;;;;23.93;15.80;;;7.30;99.90;;;;;;5040276;28;20037;-80
2023/11/12 05:26:38;;;;;;;26.27;15.57;;;7.30;99.90;;;;;;5039090;28;20053;-80
2023/11/12 05:29:04;;;;;;;23.13;15.63;;;7.30;99.90;;;;;;5037760;28;20029;-81
2023/11/12 05:31:32;;;;;;;25.90;16.63;;;7.30;99.90;;;;;;5039723;28;20056;-80
2023/11/12 05:34:02;;;;;;;27.10;16.20;;;7.30;99.90;;;;;;5039006;28;20026;-81
2023/11/12 05:36:28;;;;;;;25.27;15.63;;;7.30;99.90;;;;;;5056296;28;20036;-80
2023/11/12 05:38:54;;;;;;;23.03;15.67;;;7.30;99.90;;;;;;5039577;28;20037;-80
2023/11/12 05:41:20;;;;;;;23.27;15.53;;;7.30;99.90;;;;;;5055270;28;20068;-80
2023/11/12 05:43:46;;;;;;;23.13;16.17;;;7.30;99.90;;;;;;5039239;28;20057;-80
2023/11/12 05:46:13;;;;;;;23.47;16.37;;;7.30;99.90;;;;;;5038178;28;20393;-81
2023/11/12 05:48:39;;;;;;;21.70;16.27;;;7.30;99.90;;;;;;5040920;28;20029;-80
2023/11/12 05:51:05;;;;;;;22.10;15.70;;;7.30;99.90;;;;;;5037479;28;20029;-81
2023/11/12 05:53:32;;;;;;;21.00;16.00;;;7.20;99.90;;;;;;5056053;28;20048;-81
2023/11/12 05:55:57;;;;;;;26.07;16.37;;;7.20;99.90;;;;;;5037875;28;20018;-81
2023/11/12 05:58:23;;;;;;;24.83;16.87;;;7.20;99.90;;;;;;5041112;28;20018;-81
2023/11/12 06:00:53;;;;;;;24.67;16.50;;;7.10;99.90;;;;;;5042398;28;20056;-81
2023/11/12 06:03:19;;;;;;;23.93;16.00;;;7.10;99.90;;;;;;5041349;28;20021;-81
2023/11/12 06:05:44;;;;;;;24.93;16.13;;;7.10;99.90;;;;;;5043158;28;20014;-81
2023/11/12 06:08:10;;;;;;;24.63;15.30;;;7.00;99.90;;;;;;5041080;28;20101;-81
2023/11/12 06:10:36;;;;;;;23.73;15.73;;;7.00;99.90;;;;;;5043652;28;20025;-81
2023/11/12 06:13:02;;;;;;;24.17;15.43;;;7.00;99.90;;;;;;5041603;28;20477;-81
2023/11/12 06:15:28;;;;;;;24.03;16.73;;;6.90;99.90;;;;;;5042393;28;20047;-81
2023/11/12 06:17:54;;;;;;;25.57;15.43;;;6.90;99.90;;;;;;5043373;28;20085;-81
2023/11/12 06:20:20;;;;;;;25.67;16.00;;;6.90;99.90;;;;;;5041147;28;20037;-81
2023/11/12 06:22:46;;;;;;;24.43;16.00;;;6.90;99.90;;;;;;5042525;28;20053;-81
2023/11/12 06:25:11;;;;;;;27.40;16.83;;;6.80;99.90;;;;;;5040644;28;20116;-81
2023/11/12 06:27:38;;;;;;;23.10;14.97;;;6.80;99.90;;;;;;5042550;28;20065;-81
2023/11/12 06:30:05;;;;;;;23.43;14.97;;;6.80;99.90;;;;;;5041234;28;20009;-81
2023/11/12 06:32:30;;;;;;;22.03;15.87;;;6.80;99.90;;;;;;5043498;28;20026;-81
2023/11/12 06:34:56;;;;;;;21.77;15.23;;;6.70;99.90;;;;;;5041576;28;20014;-81
2023/11/12 06:37:22;;;;;;;23.83;15.60;;;6.60;99.90;;;;;;5042549;28;20021;-81
2023/11/12 06:39:47;;;;;;;23.03;16.33;;;6.60;99.90;;;;;;5043319;28;20056;-80
2023/11/12 06:42:13;;;;;;;24.60;16.80;;;6.60;99.90;;;;;;5042351;28;20477;-81
2023/11/12 06:44:39;;;;;;;22.60;14.70;;;6.50;99.90;;;;;;5043247;28;20026;-81
2023/11/12 06:47:05;;;;;;;26.37;15.73;;;6.40;99.90;;;;;;5057525;28;20027;-80
2023/11/12 06:49:31;;;;;;;23.57;15.80;;;6.40;99.90;;;;;;5061613;28;20025;-81
2023/11/12 06:51:58;;;;;;;24.03;15.67;;;6.40;99.90;;;;;;5060965;28;20033;-81
2023/11/12 06:54:24;;;;;;;23.23;16.43;;;6.30;99.90;;;;;;5060859;28;20025;-82
2023/11/12 06:56:50;;;;;;;25.17;16.57;;;6.30;99.90;;;;;;5062197;28;20036;-82
2023/11/12 06:59:16;;;;;;;24.60;17.50;;;6.30;99.90;;;;;;5059985;28;20507;-79
2023/11/12 07:01:42;;;;;;;25.73;17.30;;;6.20;99.90;;;;;;5061790;28;20342;-80
2023/11/12 07:04:10;;;;;;;23.20;16.23;;;6.20;99.90;;;;;;5060281;28;20009;-80
2023/11/12 07:06:36;;;;;;;26.63;17.47;;;6.20;99.90;;;;;;5061227;28;20036;-79
2023/11/12 07:09:01;;;;;;;27.37;17.47;;;6.30;99.90;;;;;;5052245;28;20022;-78
2023/11/12 07:11:27;;;;;;;24.23;16.80;;;6.20;99.90;;;;;;5043533;28;20028;-80
2023/11/12 07:13:54;;;;;;;28.37;17.53;;;6.30;99.90;;;;;;5042056;28;20033;-79
2023/11/12 07:16:20;;;;;;;26.03;16.43;;;6.20;99.90;;;;;;5041362;28;20028;-79
2023/11/12 07:18:46;;;;;;;26.83;16.23;;;6.10;99.90;;;;;;5061715;28;20031;-79
2023/11/12 07:21:12;;;;;;;21.77;15.97;;;6.10;99.90;;;;;;5056155;28;20052;-81
2023/11/12 07:23:38;;;;;;;22.90;16.40;;;6.20;99.90;;;;;;5061235;28;20023;-80
2023/11/12 07:26:04;;;;;;;25.13;16.80;;;6.20;99.90;;;;;;5060212;28;20048;-80
2023/11/12 07:28:30;;;;;;;24.20;17.40;;;6.20;99.90;;;;;;5060386;28;20021;-80
2023/11/12 07:30:56;;;;;;;26.10;17.20;;;6.10;99.90;;;;;;5060775;28;20518;-80
2023/11/12 07:33:22;;;;;;;26.83;16.93;;;6.20;99.90;;;;;;5059685;28;20017;-78
2023/11/12 07:35:49;;;;;;;27.67;17.47;;;6.30;99.90;;;;;;5061343;28;20013;-78
2023/11/12 07:38:15;;;;;;;25.67;16.30;;;6.30;99.90;;;;;;5060217;28;20080;-78
2023/11/12 07:40:41;;;;;;;26.70;16.70;;;6.40;99.90;;;;;;5060657;28;20064;-79
2023/11/12 07:43:07;;;;;;;25.43;16.63;;;6.40;99.90;;;;;;5060047;28;20476;-78
2023/11/12 07:45:33;;;;;;;26.77;17.33;;;6.50;99.90;;;;;;5060172;28;20028;-78
2023/11/12 07:48:00;;;;;;;24.33;16.03;;;6.60;99.90;;;;;;5060585;28;20606;-79
2023/11/12 07:50:26;;;;;;;27.47;17.17;;;6.60;99.90;;;;;;5059520;28;20024;-79
2023/11/12 07:52:51;;;;;;;26.33;16.27;;;6.70;99.90;;;;;;5060936;28;20021;-79
2023/11/12 07:55:17;;;;;;;24.57;16.80;;;6.70;99.90;;;;;;5058766;28;20029;-79
2023/11/12 07:57:43;;;;;;;25.57;17.03;;;6.70;99.90;;;;;;5062241;28;20057;-79
2023/11/12 08:00:13;;;;;;;22.93;16.20;;;6.70;99.90;;;;;;5059014;28;20044;-79
2023/11/12 08:02:39;;;;;;;26.57;15.77;;;6.80;99.90;;;;;;5059753;28;20021;-79
2023/11/12 08:05:08;;;;;;;23.73;16.27;;;6.80;99.90;;;;;;5059930;28;20381;-79
2023/11/12 08:07:34;;;;;;;26.27;16.20;;;6.90;99.90;;;;;;5058761;28;20017;-79
2023/11/12 08:10:04;;;;;;;25.33;16.47;;;6.90;99.90;;;;;;5057327;28;20040;-79
2023/11/12 08:12:29;;;;;;;25.00;15.27;;;6.90;99.90;;;;;;5053083;28;20025;-79
2023/11/12 08:14:55;;;;;;;24.37;16.33;;;7.00;99.90;;;;;;5060228;28;20051;-78
2023/11/12 08:17:21;;;;;;;27.60;16.03;;;7.00;99.90;;;;;;5058989;28;20066;-79
2023/11/12 08:19:46;;;;;;;29.30;15.23;;;7.10;99.90;;;;;;5059285;28;20037;-79
2023/11/12 08:22:12;;;;;;;25.10;17.30;;;7.10;99.90;;;;;;5059346;28;20028;-82
2023/11/12 08:24:38;;;;;;;27.40;16.00;;;7.20;99.90;;;;;;5057974;28;20053;-79
2023/11/12 08:27:04;;;;;;;24.67;16.83;;;7.20;99.90;;;;;;5059951;28;20021;-78
2023/11/12 08:29:31;;;;;;;24.07;15.90;;;7.30;99.90;;;;;;5058398;28;20017;-78
2023/11/12 08:31:57;;;;;;;24.00;16.53;;;7.30;99.90;;;;;;5060591;28;20047;-79
2023/11/12 08:34:23;;;;;;;25.57;15.13;;;7.40;99.90;;;;;;5058911;28;20051;-78
2023/11/12 08:36:52;;;;;;;26.77;15.37;;;7.50;99.90;;;;;;5060880;28;20134;-78
2023/11/12 08:39:18;;;;;;;23.67;15.33;;;7.50;99.90;;;;;;5059087;28;20071;-78
2023/11/12 08:41:48;;;;;;;22.50;16.70;;;7.50;99.90;;;;;;5058233;28;20130;-79
2023/11/12 08:44:14;;;;;;;22.67;16.23;;;7.60;99.90;;;;;;5050831;28;20014;-78
2023/11/12 08:46:40;;;;;;;25.33;15.93;;;7.70;99.90;;;;;;5047965;28;20116;-78
2023/11/12 08:49:07;;;;;;;23.50;16.23;;;7.70;99.90;;;;;;5049798;28;20015;-78
2023/11/12 08:51:33;;;;;;;23.20;15.87;;;7.80;99.90;;;;;;5048532;28;20085;-78
2023/11/12 08:53:59;;;;;;;25.03;15.10;;;7.80;99.90;;;;;;5048775;28;20024;-78
2023/11/12 08:56:25;;;;;;;28.57;16.03;;;7.90;99.90;;;;;;5048919;28;20017;-78
2023/11/12 08:58:51;;;;;;;23.70;15.73;;;7.90;99.90;;;;;;5048178;28;20029;-79
2023/11/12 09:01:17;;;;;;;26.13;16.87;;;8.00;99.90;;;;;;5047982;28;20021;-78
2023/11/12 09:03:43;;;;;;;21.83;14.77;;;8.00;99.90;;;;;;5047990;28;20032;-78
2023/11/12 09:06:10;;;;;;;24.90;14.13;;;8.10;99.90;;;;;;5051161;28;20036;-79
2023/11/12 09:08:36;;;;;;;22.60;13.67;;;8.20;99.90;;;;;;5046743;28;21197;-79
2023/11/12 09:11:02;;;;;;;21.67;15.07;;;8.20;99.90;;;;;;5047128;28;20028;-79
2023/11/12 09:13:28;;;;;;;23.23;14.57;;;8.30;99.90;;;;;;5048543;28;20489;-79
2023/11/12 09:15:54;;;;;;;24.47;13.83;;;8.50;99.90;;;;;;5048896;28;20040;-79
2023/11/12 09:18:20;;;;;;;23.73;14.73;;;8.50;99.90;;;;;;5049829;28;20120;-80
2023/11/12 09:20:46;;;;;;;22.17;15.03;;;8.60;99.90;;;;;;5046913;28;20025;-78
2023/11/12 09:23:12;;;;;;;18.77;13.17;;;8.70;99.90;;;;;;5048847;28;20044;-79
2023/11/12 09:25:38;;;;;;;20.37;13.37;;;8.90;99.90;;;;;;5048154;28;20032;-79
2023/11/12 09:28:06;;;;;;;19.53;13.03;;;9.00;99.90;;;;;;5047663;28;20377;-79
2023/11/12 09:30:34;;;;;;;22.57;13.80;;;9.10;99.90;;;;;;5042480;28;20049;-79
2023/11/12 09:33:00;;;;;;;20.60;12.95;;;9.30;99.90;;;;;;5042619;28;20775;-79
2023/11/12 09:35:26;;;;;;;21.45;13.25;;;9.40;99.90;;;;;;5051022;28;20059;-78
2023/11/12 09:37:51;;;;;;;20.77;13.83;;;9.50;99.90;;;;;;5041295;28;20013;-78
2023/11/12 09:40:17;;;;;;;18.90;11.52;;;9.50;99.90;;;;;;5043380;28;20041;-78
2023/11/12 09:42:53;;;;;;;17.00;11.67;;;9.60;99.90;;;;;;5041688;28;20047;-78
2023/11/12 09:45:19;;;;;;;17.15;12.07;;;9.70;99.90;;;;;;5042790;28;20021;-78
2023/11/12 09:47:54;;;;;;;18.33;11.60;;;9.90;99.90;;;;;;5042161;28;20029;-78
2023/11/12 09:50:25;;;;;;;25.50;10.88;;;10.10;99.90;;;;;;5041605;28;20044;-79
2023/11/12 09:52:52;;;;;;;16.38;10.23;;;10.20;99.90;;;;;;5052812;28;20124;-79
2023/11/12 09:55:20;;;;;;;17.88;11.35;;;10.30;99.90;;;;;;5049150;28;20089;-79
2023/11/12 09:57:46;;;;;;;17.73;10.40;;;10.30;99.90;;;;;;5052761;28;20009;-79
2023/11/12 10:00:13;;;;;;;15.15;10.13;;;10.30;99.90;;;;;;5051719;28;20049;-79
2023/11/12 10:02:43;;;;;;;15.48;9.05;;;10.40;99.90;;;;;;5050333;28;20063;-78
2023/11/12 10:05:13;;;;;;;15.18;10.05;;;10.40;99.90;;;;;;5053183;28;20036;-78
2023/11/12 10:07:42;;;;;;;15.85;9.63;;;10.50;99.90;;;;;;5049467;28;20044;-80
2023/11/12 10:10:22;;;;;;;15.15;9.10;;;10.50;99.90;;;;;;5055112;28;20036;-79
2023/11/12 10:12:48;;;;;;;15.50;9.38;;;10.60;99.90;;;;;;5060999;28;20017;-79
2023/11/12 10:15:14;;;;;;;15.05;9.82;;;10.80;99.90;;;;;;5061970;28;20353;-79
2023/11/12 10:17:47;;;;;;;13.55;8.35;;;10.90;99.90;;;;;;5061143;28;20505;-79
2023/11/12 10:20:23;;;;;;;14.30;8.35;;;11.20;99.90;;;;;;5060987;28;20392;-78
2023/11/12 10:22:50;;;;;;;12.80;8.10;;;11.60;99.90;;;;;;5062318;28;20029;-79
2023/11/12 10:25:51;;;;;;;11.27;6.53;;;11.90;99.90;;;;;;5060657;28;20055;-79
2023/11/12 10:28:17;;;;;;;10.68;6.63;;;12.20;99.90;;;;;;5024062;28;20128;-79
2023/11/12 10:30:43;;;;;;;9.43;5.70;;;12.40;99.90;;;;;;5053161;28;20037;-79
2023/11/12 10:33:27;;;;;;;13.35;6.38;;;12.60;99.90;;;;;;5060647;28;20083;-79
2023/11/12 10:35:55;;;;;;;9.43;4.60;;;12.70;99.90;;;;;;5064071;28;20023;-79
2023/11/12 10:38:22;;;;;;;7.85;4.10;;;12.80;99.90;;;;;;5062912;28;20047;-79
2023/11/12 10:40:58;;;;;;;7.85;4.30;;;13.10;99.90;;;;;;5064139;28;20056;-79
2023/11/12 10:43:25;;;;;;;8.63;4.50;;;13.40;99.90;;;;;;5062351;28;20049;-79
2023/11/12 10:45:58;;;;;;;7.10;3.78;;;13.60;99.90;;;;;;5047801;28;20032;-79
2023/11/12 10:48:35;;;;;;;6.80;3.97;;;14.10;99.90;;;;;;5050575;28;20048;-79
2023/11/12 10:51:06;;;;;;;6.63;3.65;;;14.50;99.90;;;;;;5059739;28;20025;-80
2023/11/12 10:53:33;;;;;;;4.93;3.28;;;14.90;99.90;;;;;;5061747;28;20028;-79
2023/11/12 10:56:00;;;;;;;6.38;3.00;;;15.40;99.90;;;;;;5060463;28;20064;-79
2023/11/12 10:58:28;;;;;;;5.50;2.85;;;16.00;99.30;;;;;;5058720;28;20025;-79
2023/11/12 11:00:57;;;;;;;5.50;2.72;;;16.50;97.80;;;;;;5061162;28;20032;-79
2023/11/12 11:03:26;;;;;;;4.68;2.63;;;17.00;97.00;;;;;;5059736;28;20060;-79
2023/11/12 11:05:55;;;;;;;5.60;2.80;;;17.50;95.00;;;;;;5061758;28;20017;-80
2023/11/12 11:08:21;;;;;;;4.30;2.30;;;17.80;93.30;;;;;;5059308;28;20039;-80
2023/11/12 11:10:46;;;;;;;5.63;2.55;;;18.30;92.80;;;;;;5057971;28;20029;-79
2023/11/12 11:13:13;;;;;;;6.05;2.97;;;18.50;91.80;;;;;;5057707;28;20017;-80
2023/11/12 11:15:44;;;;;;;5.13;2.47;;;18.70;90.20;;;;;;5057272;28;20021;-80
2023/11/12 11:18:31;;;;;;;4.15;2.50;;;18.80;88.30;;;;;;5054447;28;20040;-79
2023/11/12 11:21:04;;;;;;;4.50;2.75;;;18.80;85.40;;;;;;5041765;28;20107;-80
2023/11/12 11:23:53;;;;;;;6.38;3.50;;;18.80;83.10;;;;;;5052141;28;20025;-79
2023/11/12 11:26:27;;;;;;;3.80;2.53;;;18.80;81.30;;;;;;5060285;28;20025;-80
2023/11/12 11:29:05;;;;;;;4.07;2.50;;;19.00;81.30;;;;;;5059077;28;20105;-80
2023/11/12 11:31:31;;;;;;;3.95;2.40;;;19.00;79.40;;;;;;5061160;28;20047;-80
2023/11/12 11:33:58;;;;;;;4.63;2.97;;;19.10;78.30;;;;;;5058937;28;20040;-79
2023/11/12 11:36:24;;;;;;;4.45;2.40;;;19.20;76.90;;;;;;5060748;28;20028;-80
2023/11/12 11:39:02;;;;;;;4.55;2.30;;;19.40;76.70;;;;;;5060935;28;20028;-79
2023/11/12 11:41:49;;;;;;;4.25;2.63;;;19.70;74.50;;;;;;5060879;28;20064;-80
2023/11/12 11:44:40;;;;;;;4.63;2.75;;;19.60;73.70;;;;;;5053330;28;20037;-80
2023/11/12 11:47:06;;;;;;;5.13;2.67;;;19.70;71.10;;;;;;5059051;28;20089;-80
2023/11/12 11:49:32;;;;;;;4.43;2.50;;;19.70;71.80;;;;;;5059713;28;20063;-80
2023/11/12 11:52:01;;;;;;;5.05;2.80;;;19.90;70.70;;;;;;5039981;28;20022;-80
2023/11/12 11:54:28;;;;;;;5.43;2.47;;;20.20;69.40;;;;;;5052381;28;20032;-80
2023/11/12 11:56:57;;;;;;;5.32;2.40;;;20.40;69.20;;;;;;5049476;28;20026;-80
2023/11/12 11:59:24;;;;;;;4.28;1.98;;;20.80;68.60;;;;;;5051326;28;20059;-80
2023/11/12 12:01:53;;;;;;;4.97;2.15;;;21.00;68.30;;;;;;5058166;28;20085;-79
2023/11/12 12:04:19;;;;;;;5.00;1.80;;;21.40;67.00;;;;;;5049789;28;20055;-80
2023/11/12 12:06:46;;;;;;;2.72;1.50;;;21.20;66.50;;;;;;5056977;28;20017;-80
2023/11/12 12:09:19;;;;;;;6.70;2.45;;;21.20;65.30;;;;;;5056998;28;20021;-80
2023/11/12 12:11:52;;;;;;;3.75;2.33;;;20.90;63.60;;;;;;5059154;28;20100;-80
2023/11/12 12:14:24;;;;;;;5.68;3.05;;;20.50;63.40;;;;;;5060442;28;20033;-79
2023/11/12 12:16:50;;;;;;;4.82;3.00;;;20.00;61.70;;;;;;5060180;28;20029;-80
2023/11/12 12:19:21;;;;;;;4.47;2.88;;;19.30;62.00;;;;;;5061732;28;20064;-80
2023/11/12 12:21:51;;;;;;;4.63;2.80;;;18.80;62.80;;;;;;5060811;28;20315;-80
2023/11/12 12:24:21;;;;;;;4.32;2.65;;;18.50;63.80;;;;;;5059102;28;20017;-77
2023/11/12 12:26:48;;;;;;;4.90;3.08;;;18.50;65.20;;;;;;5061100;28;20021;-77
2023/11/12 12:29:21;;;;;;;4.95;2.90;;;18.70;64.90;;;;;;5058041;28;20024;-80
2023/11/12 12:31:48;;;;;;;5.78;3.28;;;18.70;63.80;;;;;;5060427;28;20382;-80
2023/11/12 12:34:19;;;;;;;5.70;3.30;;;18.50;63.70;;;;;;5058208;28;20115;-80
2023/11/12 12:36:57;;;;;;;7.50;3.60;;;18.30;62.80;;;;;;5059549;28;20025;-80
2023/11/12 12:39:26;;;;;;;7.10;4.15;;;17.70;63.30;;;;;;5060879;28;20039;-79
2023/11/12 12:41:56;;;;;;;8.65;4.68;;;17.20;63.30;;;;;;5058034;28;20106;-79